Terminal Aerodrome Forecast
Issued by NWS Louisville, KY

Home | Current Version | Previous Version | Text Only | Print | Product List | Glossary On
Versions: 1 2 3 4 5 6 7 8 9 10 11 12 13 14 15 16 17 18 19 20 21 22 23 24
000
FTUS43 KLMK 282000 AAB
TAFSDF
TAF AMD
KSDF 282046Z 2821/2924 15006KT P6SM SCT035
     FM282100 15006KT P6SM VCSH BKN035
     FM282200 15006KT P6SM SCT035
     FM290700 15004KT 5SM BR BKN015
     FM291400 18010KT 5SM BR VCSH BKN025=

USA.gov is the U.S. government's official web portal to all federal, state and local government web resources and services.